Terminal Aerodrome Forecast
Issued by NWS Sioux Falls, SD

Home | Current Version | Previous Version | Text Only | Print | Product List | Glossary Off
Versions: 1 2 3 4 5 6 7 8 9 10 11 12 13 14 15 16 17 18 19 20

000
FTUS43 KFSD 261320 AAA
TAFHON
TAF AMD
KHON 261320Z 2613/2712 36022G30KT P6SM BKN070
      TEMPO 2613/2614 OVC010
     FM261700 34018G25KT P6SM BKN030
     FM262100 35014G20KT P6SM BKN035
     FM270100 36006KT P6SM SCT040 BKN120
     FM270700 VRB03KT P6SM BKN100=

USA.gov is the U.S. government's official web portal to all federal, state and local government web resources and services.